Time;durP1;ratioP1;P1;durP2;ratioP2;P2;SDS_P1;SDS_P2;PMS_P1;PMS_P2;Temp;Humidity;BMP_temperature;BMP_pressure;BME280_temperature;BME280_humidity;BME280_pressure;Samples;Min_cycle;Max_cycle;Signal;HPM_P1;HPM_P2
2021/05/27 00:01:49;;;;;;;1.90;1.75;;;17.30;59.30;;;;;;5053589;28;20167;-64
2021/05/27 00:04:15;;;;;;;3.03;1.65;;;17.30;59.40;;;;;;5054448;28;20186;-65
2021/05/27 00:06:40;;;;;;;2.40;1.73;;;17.30;59.40;;;;;;5054222;28;20517;-65
2021/05/27 00:09:06;;;;;;;2.00;1.80;;;17.30;59.40;;;;;;5053635;28;20610;-65
2021/05/27 00:11:31;;;;;;;2.80;1.83;;;17.30;59.40;;;;;;5054161;28;20176;-65
2021/05/27 00:13:57;;;;;;;2.80;1.85;;;17.30;59.30;;;;;;5054420;28;20175;-64
2021/05/27 00:16:23;;;;;;;3.17;1.98;;;17.30;59.40;;;;;;5053801;28;20171;-64
2021/05/27 00:18:52;;;;;;;2.40;1.92;;;17.30;59.40;;;;;;5053780;28;20253;-64
2021/05/27 00:21:18;;;;;;;1.90;1.75;;;17.30;59.30;;;;;;5054251;28;20240;-64
2021/05/27 00:23:44;;;;;;;2.05;1.83;;;17.30;59.40;;;;;;5052946;28;20185;-64
2021/05/27 00:26:10;;;;;;;2.97;1.98;;;17.30;59.30;;;;;;5054237;28;20168;-63
2021/05/27 00:28:35;;;;;;;1.92;1.73;;;17.30;59.40;;;;;;5054021;28;20646;-64
2021/05/27 00:31:01;;;;;;;2.00;1.80;;;17.20;59.30;;;;;;5053380;28;20597;-64
2021/05/27 00:33:26;;;;;;;2.10;1.75;;;17.20;59.40;;;;;;5053843;28;20646;-64
2021/05/27 00:35:52;;;;;;;2.35;2.15;;;17.30;59.50;;;;;;5053489;28;20270;-64
2021/05/27 00:38:17;;;;;;;3.10;1.88;;;17.20;59.30;;;;;;5053020;28;20171;-63
2021/05/27 00:40:43;;;;;;;2.28;2.08;;;17.20;59.30;;;;;;5053202;28;20240;-64
2021/05/27 00:43:08;;;;;;;2.85;2.15;;;17.20;59.40;;;;;;5053073;28;20589;-64
2021/05/27 00:45:34;;;;;;;2.00;1.80;;;17.20;59.30;;;;;;5052746;28;20542;-64
2021/05/27 00:47:59;;;;;;;2.20;2.00;;;17.20;59.40;;;;;;5053918;28;20175;-64
2021/05/27 00:50:25;;;;;;;1.85;1.75;;;17.20;59.40;;;;;;5052900;28;20186;-64
2021/05/27 00:52:57;;;;;;;1.80;1.70;;;17.20;59.30;;;;;;5053080;28;20167;-65
2021/05/27 00:55:24;;;;;;;3.22;2.38;;;17.20;59.40;;;;;;5053723;28;20187;-64
2021/05/27 00:57:50;;;;;;;2.25;2.00;;;17.20;59.50;;;;;;5052443;28;20175;-64
2021/05/27 01:00:21;;;;;;;2.47;2.28;;;17.20;59.50;;;;;;5053334;28;20283;-64
2021/05/27 01:02:47;;;;;;;3.88;2.30;;;17.20;59.50;;;;;;5052981;28;20186;-64
2021/05/27 01:05:13;;;;;;;2.45;2.20;;;17.10;59.50;;;;;;5052639;28;20171;-65
2021/05/27 01:07:38;;;;;;;2.95;2.08;;;17.20;59.50;;;;;;5052871;28;20656;-65
2021/05/27 01:10:08;;;;;;;2.60;2.20;;;17.20;59.50;;;;;;5053318;28;20699;-65
2021/05/27 01:12:34;;;;;;;2.35;2.15;;;17.20;59.50;;;;;;5052346;28;20172;-65
2021/05/27 01:17:43;;;;;;;3.72;2.50;;;17.20;59.50;;;;;;5053001;28;20192;-64
2021/05/27 01:20:10;;;;;;;4.05;2.10;;;17.10;59.50;;;;;;5052321;28;20301;-63
2021/05/27 01:22:36;;;;;;;3.05;2.17;;;17.10;59.40;;;;;;5052949;28;20254;-64
2021/05/27 01:25:02;;;;;;;2.60;2.15;;;17.10;59.40;;;;;;5053002;28;20257;-64
2021/05/27 01:27:27;;;;;;;2.40;2.08;;;17.10;59.50;;;;;;5052313;28;20179;-64
2021/05/27 01:29:53;;;;;;;2.47;2.28;;;17.10;59.40;;;;;;5052601;28;20644;-64
2021/05/27 01:32:19;;;;;;;2.90;2.00;;;17.10;60.10;;;;;;5052766;28;20186;-64
2021/05/27 01:34:44;;;;;;;2.55;2.05;;;17.10;59.40;;;;;;5051655;28;20262;-64
2021/05/27 01:37:10;;;;;;;3.78;2.38;;;17.10;59.60;;;;;;5052933;28;20167;-64
2021/05/27 01:39:36;;;;;;;3.35;2.80;;;17.10;59.50;;;;;;5051818;28;20582;-64
2021/05/27 01:42:02;;;;;;;2.08;1.80;;;17.10;59.50;;;;;;5052418;28;20693;-64
2021/05/27 01:44:28;;;;;;;2.40;2.20;;;17.10;59.50;;;;;;5052744;28;20555;-63
2021/05/27 01:46:53;;;;;;;2.60;2.22;;;17.10;59.50;;;;;;5051683;28;20167;-63
2021/05/27 01:49:19;;;;;;;2.55;2.30;;;17.10;59.60;;;;;;5052512;28;20182;-64
2021/05/27 01:51:49;;;;;;;2.53;2.20;;;17.10;59.40;;;;;;5052241;28;20167;-64
2021/05/27 01:54:15;;;;;;;2.85;2.00;;;17.10;59.50;;;;;;5051894;28;20591;-64
2021/05/27 01:56:40;;;;;;;2.50;2.30;;;17.10;59.50;;;;;;5052308;28;20691;-64
2021/05/27 01:59:06;;;;;;;2.10;1.92;;;17.10;59.50;;;;;;5052833;28;20235;-63
2021/05/27 02:01:31;;;;;;;3.65;2.15;;;17.10;59.50;;;;;;5051467;28;20181;-64
2021/05/27 02:03:57;;;;;;;2.75;2.30;;;17.10;59.50;;;;;;5052605;28;20530;-64
2021/05/27 02:06:22;;;;;;;2.47;2.28;;;17.10;59.50;;;;;;5052750;28;20175;-65
2021/05/27 02:11:32;;;;;;;3.00;2.10;;;17.00;59.40;;;;;;5052228;28;20185;-65
2021/05/27 02:13:58;;;;;;;3.85;2.60;;;17.00;59.40;;;;;;5052289;28;20183;-64
2021/05/27 02:16:23;;;;;;;2.63;1.90;;;17.00;59.60;;;;;;5051576;28;20555;-64
2021/05/27 02:18:49;;;;;;;2.78;2.10;;;17.00;59.50;;;;;;5051818;28;20226;-64
2021/05/27 02:21:14;;;;;;;3.85;2.35;;;17.00;59.40;;;;;;5052347;28;20167;-63
2021/05/27 02:23:40;;;;;;;2.90;2.20;;;17.00;59.40;;;;;;5051346;28;20179;-63
2021/05/27 02:26:06;;;;;;;2.55;2.33;;;17.00;59.40;;;;;;5052182;28;20171;-64
2021/05/27 02:28:31;;;;;;;2.38;2.17;;;17.00;59.40;;;;;;5052114;28;20175;-64
2021/05/27 02:30:57;;;;;;;2.97;2.40;;;17.00;59.50;;;;;;5051403;28;20643;-64
2021/05/27 02:33:22;;;;;;;2.50;2.30;;;17.00;59.40;;;;;;5052262;28;20362;-64
2021/05/27 02:35:48;;;;;;;2.33;2.15;;;17.00;59.50;;;;;;5051119;28;20615;-64
2021/05/27 02:38:13;;;;;;;2.20;2.00;;;17.00;60.20;;;;;;5052237;28;20179;-64
2021/05/27 02:40:39;;;;;;;2.05;1.95;;;17.00;59.60;;;;;;5051964;28;20210;-64
2021/05/27 02:43:04;;;;;;;2.63;2.28;;;17.00;60.20;;;;;;5051050;28;20219;-64
2021/05/27 02:45:30;;;;;;;2.47;2.28;;;17.00;59.40;;;;;;5052041;28;20550;-63
2021/05/27 02:47:55;;;;;;;2.60;2.40;;;17.00;59.50;;;;;;5051713;28;20617;-64
2021/05/27 02:50:20;;;;;;;2.65;2.45;;;17.00;59.40;;;;;;5051501;28;20176;-64
2021/05/27 02:52:46;;;;;;;4.18;2.63;;;17.00;59.50;;;;;;5051722;28;20172;-64
2021/05/27 02:55:12;;;;;;;2.92;2.28;;;17.00;59.40;;;;;;5052127;28;20201;-64
2021/05/27 02:57:37;;;;;;;2.15;1.95;;;17.00;59.60;;;;;;5051042;28;20508;-64
2021/05/27 03:00:06;;;;;;;2.53;2.13;;;17.00;59.40;;;;;;5051759;28;20234;-63
2021/05/27 03:02:32;;;;;;;2.50;2.30;;;16.90;59.50;;;;;;5051859;28;20220;-64
2021/05/27 03:04:57;;;;;;;3.20;2.20;;;16.90;59.50;;;;;;5052236;28;20175;-64
2021/05/27 03:07:23;;;;;;;2.63;2.25;;;16.90;59.50;;;;;;5055662;28;20175;-65
2021/05/27 03:09:48;;;;;;;2.17;2.08;;;16.90;59.50;;;;;;5055240;28;20190;-64
2021/05/27 03:12:14;;;;;;;2.60;2.40;;;17.00;59.60;;;;;;5054829;28;20191;-64
2021/05/27 03:14:39;;;;;;;2.33;2.08;;;16.90;59.40;;;;;;5055060;28;20183;-64
2021/05/27 03:17:05;;;;;;;2.83;2.30;;;16.90;59.50;;;;;;5055429;28;20630;-64
2021/05/27 03:19:30;;;;;;;2.15;1.92;;;16.90;59.40;;;;;;5054444;28;20583;-63
2021/05/27 03:21:58;;;;;;;2.28;2.08;;;16.90;59.40;;;;;;5055191;28;20171;-63
2021/05/27 03:24:24;;;;;;;2.40;2.20;;;16.90;59.50;;;;;;5055311;28;20183;-63
2021/05/27 03:26:51;;;;;;;2.40;2.20;;;16.90;59.40;;;;;;5054178;28;20707;-64
2021/05/27 03:29:18;;;;;;;2.28;2.03;;;16.90;59.40;;;;;;5055149;28;20225;-63
2021/05/27 03:31:44;;;;;;;3.17;2.35;;;16.90;59.50;;;;;;5054964;28;20175;-64
2021/05/27 03:34:09;;;;;;;2.50;2.30;;;16.90;59.60;;;;;;5054537;28;20548;-64
2021/05/27 03:36:35;;;;;;;2.72;2.20;;;16.90;59.50;;;;;;5054685;28;20598;-64
2021/05/27 03:39:00;;;;;;;2.15;2.00;;;16.90;59.50;;;;;;5054837;28;20303;-64
2021/05/27 03:41:26;;;;;;;2.70;2.50;;;16.90;59.50;;;;;;5054063;28;20171;-64
2021/05/27 03:43:51;;;;;;;2.85;2.20;;;16.90;59.50;;;;;;5054564;28;20179;-63
2021/05/27 03:46:17;;;;;;;2.35;2.15;;;16.90;59.50;;;;;;5054117;28;20171;-64
2021/05/27 03:48:42;;;;;;;2.22;2.03;;;16.90;59.50;;;;;;5054542;28;20646;-64
2021/05/27 03:51:08;;;;;;;3.05;2.15;;;16.90;59.50;;;;;;5054561;28;20186;-65
2021/05/27 03:53:33;;;;;;;2.45;2.13;;;16.90;59.50;;;;;;5053777;28;20201;-64
2021/05/27 03:55:59;;;;;;;2.78;2.13;;;16.90;59.70;;;;;;5054523;28;20179;-64
2021/05/27 04:01:08;;;;;;;2.83;2.17;;;16.90;59.50;;;;;;5054100;28;20664;-64
2021/05/27 04:09:03;;;;;;;2.38;2.17;;;16.90;59.50;;;;;;5053576;28;20182;-65
2021/05/27 04:11:29;;;;;;;2.60;2.25;;;16.90;59.50;;;;;;5054469;28;20195;-65
2021/05/27 04:13:54;;;;;;;3.67;2.40;;;16.90;59.50;;;;;;5053854;28;20171;-64
2021/05/27 04:16:20;;;;;;;2.17;1.95;;;16.90;59.50;;;;;;5052675;28;20175;-64
2021/05/27 04:18:45;;;;;;;3.08;2.40;;;16.90;59.60;;;;;;5053801;28;20207;-64
2021/05/27 04:21:10;;;;;;;2.38;2.17;;;16.90;59.50;;;;;;5020220;28;20224;-64
2021/05/27 04:23:36;;;;;;;2.42;2.22;;;16.90;59.50;;;;;;5053050;28;20204;-63
2021/05/27 04:26:06;;;;;;;1.90;1.80;;;16.80;59.40;;;;;;5054110;28;20652;-64
2021/05/27 04:28:32;;;;;;;2.58;2.25;;;16.90;59.50;;;;;;5052952;28;20672;-64
2021/05/27 04:31:14;;;;;;;2.55;2.35;;;16.90;59.50;;;;;;5053971;28;20167;-63
2021/05/27 04:33:43;;;;;;;2.40;2.20;;;16.90;59.50;;;;;;5053562;28;20175;-64
2021/05/27 04:36:12;;;;;;;2.90;2.05;;;16.90;59.60;;;;;;5053413;28;20208;-64
2021/05/27 04:38:38;;;;;;;2.50;2.30;;;16.80;59.50;;;;;;5053484;28;20610;-64
2021/05/27 04:41:04;;;;;;;2.28;2.08;;;16.90;59.50;;;;;;5053833;28;20270;-64
2021/05/27 04:43:29;;;;;;;2.28;2.08;;;16.80;59.50;;;;;;5052837;28;20227;-64
2021/05/27 04:45:55;;;;;;;2.53;2.33;;;16.80;60.20;;;;;;5053426;28;20569;-64
2021/05/27 04:48:23;;;;;;;2.45;2.25;;;16.80;59.50;;;;;;5053632;28;20220;-64
2021/05/27 04:50:49;;;;;;;2.30;2.10;;;16.80;59.50;;;;;;5052748;28;20254;-65
2021/05/27 04:53:18;;;;;;;2.38;2.17;;;16.80;59.50;;;;;;5053445;28;20582;-64
2021/05/27 04:55:43;;;;;;;2.20;2.00;;;16.80;59.50;;;;;;5053211;28;20206;-64
2021/05/27 04:58:09;;;;;;;2.10;1.90;;;16.80;59.50;;;;;;5052748;28;20206;-63
2021/05/27 05:00:35;;;;;;;2.72;2.53;;;16.80;60.20;;;;;;5053090;28;20218;-63
2021/05/27 05:03:00;;;;;;;2.40;2.20;;;16.80;59.70;;;;;;5053120;28;20254;-64
2021/05/27 05:05:29;;;;;;;2.20;2.00;;;16.90;59.90;;;;;;5052842;28;20573;-64
2021/05/27 05:07:54;;;;;;;2.20;2.00;;;16.90;59.80;;;;;;5053027;28;20186;-65
2021/05/27 05:10:21;;;;;;;2.25;2.05;;;16.90;59.80;;;;;;5053331;28;20238;-65
2021/05/27 05:12:47;;;;;;;2.38;2.13;;;17.00;59.90;;;;;;5052030;28;20194;-64
2021/05/27 05:15:26;;;;;;;2.45;1.95;;;17.20;59.50;;;;;;5053154;28;20537;-63
2021/05/27 05:17:59;;;;;;;1.75;1.65;;;17.40;59.40;;;;;;5051953;28;20182;-64
2021/05/27 05:20:29;;;;;;;1.70;1.60;;;17.60;59.20;;;;;;5053063;28;20219;-63
2021/05/27 05:22:54;;;;;;;1.95;1.60;;;17.80;58.80;;;;;;5053000;28;20172;-64
2021/05/27 05:25:20;;;;;;;2.03;1.63;;;18.00;58.50;;;;;;5052325;28;20187;-64
2021/05/27 05:27:46;;;;;;;1.90;1.80;;;18.20;58.10;;;;;;5052081;28;20167;-64
2021/05/27 05:30:12;;;;;;;2.08;1.50;;;18.40;57.60;;;;;;5053048;28;20171;-64
2021/05/27 05:32:38;;;;;;;2.17;1.70;;;18.50;57.20;;;;;;5052031;28;20179;-64
2021/05/27 05:35:07;;;;;;;2.72;1.60;;;18.70;56.90;;;;;;5052955;28;20269;-64
2021/05/27 05:37:32;;;;;;;1.35;1.25;;;18.80;56.70;;;;;;5052611;28;20178;-64
2021/05/27 05:39:58;;;;;;;1.50;1.40;;;18.80;56.60;;;;;;5051839;28;20207;-64
2021/05/27 05:42:23;;;;;;;2.17;1.60;;;18.90;56.50;;;;;;5052542;28;20284;-64
2021/05/27 05:44:49;;;;;;;1.38;1.30;;;18.90;56.40;;;;;;5052310;28;20678;-64
2021/05/27 05:47:14;;;;;;;1.42;1.33;;;19.00;56.40;;;;;;5052122;28;20168;-64
2021/05/27 05:49:40;;;;;;;1.48;1.38;;;19.10;56.30;;;;;;5052581;28;20171;-65
2021/05/27 05:52:05;;;;;;;1.35;1.25;;;19.00;56.20;;;;;;5052568;28;20171;-64
2021/05/27 05:54:31;;;;;;;1.83;1.48;;;19.00;56.20;;;;;;5051614;28;20684;-64
2021/05/27 05:56:56;;;;;;;1.75;1.60;;;18.90;56.50;;;;;;5052395;28;20179;-64
2021/05/27 05:59:22;;;;;;;1.50;1.40;;;18.80;56.60;;;;;;5052473;28;20210;-63
2021/05/27 06:01:49;;;;;;;2.25;1.40;;;18.80;56.80;;;;;;5051569;28;20171;-64
2021/05/27 06:04:14;;;;;;;1.60;1.50;;;18.60;56.90;;;;;;5052623;28;20175;-64
2021/05/27 06:06:40;;;;;;;1.30;1.20;;;18.60;57.10;;;;;;5052075;28;20524;-65
2021/05/27 06:09:05;;;;;;;1.50;1.40;;;18.50;57.30;;;;;;5051737;28;20199;-65
2021/05/27 06:11:31;;;;;;;1.65;1.55;;;18.40;57.40;;;;;;5052158;28;20198;-65
2021/05/27 06:13:56;;;;;;;1.50;1.40;;;18.30;57.60;;;;;;5051415;28;20209;-64
2021/05/27 06:16:22;;;;;;;1.52;1.42;;;18.30;57.70;;;;;;5052348;28;20637;-64
2021/05/27 06:18:47;;;;;;;1.83;1.48;;;18.20;57.90;;;;;;5051991;28;20249;-64
2021/05/27 06:21:13;;;;;;;1.30;1.30;;;18.10;58.00;;;;;;5051607;28;20171;-63
2021/05/27 06:23:38;;;;;;;1.83;1.70;;;18.00;58.00;;;;;;5052182;28;20167;-63
2021/05/27 06:26:04;;;;;;;1.75;1.65;;;18.00;58.10;;;;;;5052108;28;20175;-64
2021/05/27 06:28:29;;;;;;;1.65;1.55;;;18.00;58.20;;;;;;5051537;28;20176;-63
2021/05/27 06:30:56;;;;;;;2.25;1.50;;;18.00;58.20;;;;;;5052036;28;20167;-64
2021/05/27 06:33:22;;;;;;;2.15;1.60;;;17.90;58.30;;;;;;5052301;28;20175;-64
2021/05/27 06:35:47;;;;;;;1.75;1.40;;;17.90;58.30;;;;;;5051500;28;20555;-64
2021/05/27 06:38:14;;;;;;;1.52;1.42;;;17.90;58.50;;;;;;5052524;28;20167;-64
2021/05/27 06:40:39;;;;;;;1.65;1.52;;;17.90;58.50;;;;;;5054166;28;20301;-63
2021/05/27 06:43:05;;;;;;;1.45;1.35;;;17.90;58.50;;;;;;5055202;28;20306;-63
2021/05/27 06:45:30;;;;;;;1.85;1.67;;;18.00;58.40;;;;;;5056251;28;20540;-64
2021/05/27 06:47:56;;;;;;;1.52;1.42;;;18.00;58.30;;;;;;5056235;28;20171;-64
2021/05/27 06:50:35;;;;;;;1.60;1.50;;;18.00;58.20;;;;;;5055519;28;20179;-65
2021/05/27 06:53:06;;;;;;;1.77;1.60;;;18.00;58.30;;;;;;5055755;28;20175;-64
2021/05/27 06:55:31;;;;;;;1.70;1.60;;;18.00;58.30;;;;;;5055316;28;20258;-64
2021/05/27 06:57:57;;;;;;;2.25;1.80;;;18.00;58.40;;;;;;5054623;28;20283;-61
2021/05/27 07:00:23;;;;;;;2.85;1.67;;;17.90;58.40;;;;;;5055844;28;20210;-62
2021/05/27 07:02:48;;;;;;;4.80;1.73;;;17.90;58.50;;;;;;5055716;28;20332;-66
2021/05/27 07:05:14;;;;;;;4.88;2.03;;;17.90;58.80;;;;;;5055491;28;20231;-62
2021/05/27 07:07:40;;;;;;;3.10;1.98;;;17.90;58.90;;;;;;5055370;28;20176;-62
2021/05/27 07:10:06;;;;;;;6.60;1.95;;;17.90;59.00;;;;;;5054687;28;20179;-63
2021/05/27 07:12:32;;;;;;;2.78;1.77;;;18.00;59.00;;;;;;5055338;28;20175;-61
2021/05/27 07:14:58;;;;;;;4.88;2.33;;;18.00;59.00;;;;;;5056068;28;20167;-61
2021/05/27 07:17:24;;;;;;;2.35;1.77;;;18.00;58.90;;;;;;5054863;28;20171;-64
2021/05/27 07:19:51;;;;;;;2.83;1.95;;;18.00;59.10;;;;;;5055452;28;20298;-62
2021/05/27 07:22:20;;;;;;;4.65;2.38;;;18.00;59.00;;;;;;5056235;28;20171;-60
2021/05/27 07:24:47;;;;;;;6.72;2.10;;;18.00;59.20;;;;;;5054456;28;20171;-61
2021/05/27 07:27:12;;;;;;;3.78;2.40;;;18.00;59.30;;;;;;5055825;28;20178;-62
2021/05/27 07:29:38;;;;;;;3.92;2.38;;;18.00;59.30;;;;;;5055940;28;20183;-62
2021/05/27 07:32:06;;;;;;;3.88;2.20;;;18.00;59.50;;;;;;5054695;28;20190;-62
2021/05/27 07:34:32;;;;;;;4.38;2.63;;;18.00;59.40;;;;;;5055453;28;20266;-62
2021/05/27 07:36:58;;;;;;;3.60;2.35;;;18.10;59.40;;;;;;5056429;28;20266;-62
2021/05/27 07:39:23;;;;;;;3.92;2.47;;;18.10;59.30;;;;;;5055213;28;20297;-62
2021/05/27 07:41:49;;;;;;;3.35;2.25;;;18.20;59.30;;;;;;5055307;28;20637;-63
2021/05/27 07:44:14;;;;;;;2.85;1.90;;;18.20;59.40;;;;;;5055344;28;20657;-61
2021/05/27 07:46:40;;;;;;;4.20;2.33;;;18.20;59.40;;;;;;5054350;28;20523;-62
2021/05/27 07:49:05;;;;;;;3.50;2.45;;;18.10;59.50;;;;;;5055544;28;20262;-63
2021/05/27 07:51:31;;;;;;;3.00;2.42;;;18.10;59.80;;;;;;5055098;28;20205;-62
2021/05/27 07:53:56;;;;;;;5.20;3.17;;;18.10;59.90;;;;;;5054535;28;20262;-68
2021/05/27 07:56:22;;;;;;;6.28;2.25;;;18.10;59.90;;;;;;5054996;28;20191;-63
2021/05/27 07:58:47;;;;;;;5.80;2.42;;;18.00;59.90;;;;;;5054425;28;20669;-63
2021/05/27 08:01:15;;;;;;;5.82;2.40;;;18.00;60.10;;;;;;5054318;28;20179;-63
2021/05/27 08:03:40;;;;;;;5.25;1.90;;;18.00;60.10;;;;;;5055178;28;20205;-63
2021/05/27 08:06:06;;;;;;;4.85;2.20;;;18.00;59.90;;;;;;5054987;28;20175;-64
2021/05/27 08:08:32;;;;;;;3.40;2.33;;;18.00;60.00;;;;;;5054173;28;20535;-64
2021/05/27 08:10:57;;;;;;;3.33;1.83;;;18.00;60.00;;;;;;5055550;28;20262;-64
2021/05/27 08:13:23;;;;;;;3.72;2.20;;;18.00;60.10;;;;;;5053870;28;20179;-63
2021/05/27 08:15:48;;;;;;;3.00;2.15;;;18.00;60.10;;;;;;5054823;28;20178;-63
2021/05/27 08:18:14;;;;;;;4.70;2.63;;;17.90;60.10;;;;;;5055106;28;20174;-63
2021/05/27 08:20:40;;;;;;;4.22;2.17;;;18.00;60.20;;;;;;5053223;28;20614;-62
2021/05/27 08:23:05;;;;;;;2.90;1.80;;;17.90;60.10;;;;;;5054810;28;20509;-63
2021/05/27 08:25:31;;;;;;;4.70;2.20;;;17.90;60.10;;;;;;5053762;28;20178;-60
2021/05/27 08:27:56;;;;;;;3.03;2.00;;;17.90;60.20;;;;;;5053889;28;20250;-61
2021/05/27 08:30:22;;;;;;;5.45;2.25;;;18.00;60.30;;;;;;5054743;28;20175;-61
2021/05/27 08:32:47;;;;;;;3.78;2.20;;;18.00;60.20;;;;;;5054175;28;20167;-62
2021/05/27 08:35:13;;;;;;;3.42;2.85;;;18.00;60.20;;;;;;5052536;28;20186;-62
2021/05/27 08:37:39;;;;;;;3.33;1.90;;;18.00;60.10;;;;;;5053719;28;20183;-66
2021/05/27 08:40:05;;;;;;;4.00;2.17;;;18.00;60.20;;;;;;5054118;28;20251;-64
2021/05/27 08:42:30;;;;;;;5.82;2.42;;;18.00;60.30;;;;;;5052796;28;20616;-64
2021/05/27 08:44:56;;;;;;;2.92;2.10;;;18.00;60.30;;;;;;5053952;28;20240;-64
2021/05/27 08:47:23;;;;;;;4.60;2.33;;;18.00;60.20;;;;;;5054810;28;20171;-64
2021/05/27 08:49:49;;;;;;;4.60;2.53;;;18.00;60.20;;;;;;5035107;28;20183;-66
2021/05/27 08:52:15;;;;;;;3.17;2.13;;;18.00;60.20;;;;;;5053671;28;20177;-66
2021/05/27 08:54:40;;;;;;;3.80;2.38;;;18.00;60.30;;;;;;5053186;28;20179;-66
2021/05/27 08:57:06;;;;;;;6.57;2.90;;;18.00;60.30;;;;;;5052056;28;20258;-65
2021/05/27 08:59:31;;;;;;;3.60;2.00;;;18.00;60.40;;;;;;5052669;28;20661;-64
2021/05/27 09:02:07;;;;;;;3.67;2.25;;;18.00;60.40;;;;;;5052477;28;20179;-65
2021/05/27 09:04:33;;;;;;;4.47;2.30;;;18.00;60.40;;;;;;5049792;28;20213;-66
2021/05/27 09:06:59;;;;;;;4.13;2.40;;;18.00;60.30;;;;;;5053212;28;20194;-66
2021/05/27 09:09:25;;;;;;;5.88;2.53;;;18.00;60.30;;;;;;5053131;28;20175;-66
2021/05/27 09:11:50;;;;;;;3.28;2.17;;;18.10;60.20;;;;;;5052177;28;20175;-66
2021/05/27 09:14:16;;;;;;;5.07;2.35;;;18.10;60.10;;;;;;5052259;28;20183;-65
2021/05/27 09:17:03;;;;;;;2.97;2.10;;;18.10;59.90;;;;;;5051111;28;20176;-64
2021/05/27 09:19:28;;;;;;;4.40;2.55;;;18.20;60.00;;;;;;5050071;28;20878;-61
2021/05/27 09:21:54;;;;;;;4.63;2.55;;;18.10;59.90;;;;;;5034923;28;20171;-63
2021/05/27 09:24:45;;;;;;;4.15;2.05;;;18.10;60.10;;;;;;5052516;28;20182;-61
2021/05/27 09:27:10;;;;;;;4.22;2.35;;;18.10;60.20;;;;;;5053041;28;20259;-62
2021/05/27 09:29:43;;;;;;;4.47;2.33;;;18.00;60.20;;;;;;5052612;28;20253;-63
2021/05/27 09:32:09;;;;;;;8.02;2.58;;;18.00;60.30;;;;;;5052557;28;20175;-62
2021/05/27 09:34:41;;;;;;;3.40;2.88;;;18.00;60.40;;;;;;5054940;28;20582;-61
2021/05/27 09:37:08;;;;;;;5.60;2.65;;;17.90;60.50;;;;;;5053104;28;20175;-62
2021/05/27 09:39:40;;;;;;;4.78;2.80;;;17.90;60.70;;;;;;5033784;28;20218;-65
2021/05/27 09:42:08;;;;;;;4.55;2.80;;;17.90;60.90;;;;;;5052433;28;20230;-63
2021/05/27 09:44:34;;;;;;;3.45;2.30;;;17.90;60.90;;;;;;5052569;28;20187;-63
2021/05/27 09:46:59;;;;;;;3.35;2.30;;;17.90;60.80;;;;;;5034045;28;20179;-62
2021/05/27 09:49:26;;;;;;;5.68;2.30;;;17.90;60.90;;;;;;5052727;28;20178;-64
2021/05/27 09:51:52;;;;;;;4.63;2.25;;;17.90;61.00;;;;;;5051312;28;20542;-64
2021/05/27 09:54:17;;;;;;;5.18;2.38;;;17.90;61.10;;;;;;5052521;28;20183;-65
2021/05/27 09:56:43;;;;;;;3.85;2.10;;;17.90;61.00;;;;;;5052124;28;20644;-64
2021/05/27 09:59:11;;;;;;;4.10;2.50;;;17.90;61.10;;;;;;5051905;28;20207;-61
2021/05/27 10:01:37;;;;;;;4.82;2.92;;;17.90;61.00;;;;;;5051941;28;20270;-60
2021/05/27 10:04:12;;;;;;;3.25;2.45;;;17.90;61.00;;;;;;5052329;28;20175;-63
2021/05/27 10:06:38;;;;;;;6.38;2.60;;;17.90;61.00;;;;;;5051482;28;20171;-62
2021/05/27 10:09:05;;;;;;;9.82;3.03;;;17.90;61.20;;;;;;5052234;28;20186;-62
2021/05/27 10:11:31;;;;;;;7.53;2.65;;;17.90;61.30;;;;;;5052001;28;20179;-62
2021/05/27 10:13:56;;;;;;;5.60;2.45;;;17.90;61.00;;;;;;5052767;28;20531;-61
2021/05/27 10:16:25;;;;;;;5.38;2.60;;;17.90;61.10;;;;;;5022271;28;20187;-61
2021/05/27 10:18:51;;;;;;;4.10;2.47;;;17.90;60.90;;;;;;5055976;28;20322;-60
2021/05/27 10:21:17;;;;;;;4.47;2.50;;;17.90;60.60;;;;;;5055739;28;20175;-61
2021/05/27 10:23:42;;;;;;;5.60;2.60;;;17.90;60.50;;;;;;5056120;28;20224;-61
2021/05/27 10:26:08;;;;;;;2.95;2.20;;;17.90;60.50;;;;;;5056241;28;20508;-60
2021/05/27 10:28:34;;;;;;;3.63;2.55;;;17.90;60.50;;;;;;5055517;28;20672;-60
2021/05/27 10:30:59;;;;;;;5.00;2.58;;;17.90;60.40;;;;;;5056440;28;20223;-61
2021/05/27 10:33:25;;;;;;;2.85;2.30;;;17.90;60.60;;;;;;5056376;28;20258;-60
2021/05/27 10:35:58;;;;;;;2.97;2.20;;;17.80;60.50;;;;;;5037303;28;20534;-61
2021/05/27 10:38:42;;;;;;;4.70;2.28;;;17.80;60.50;;;;;;5056126;28;20255;-60
2021/05/27 10:41:15;;;;;;;4.65;2.70;;;17.80;60.40;;;;;;5055417;28;20191;-62
2021/05/27 10:44:04;;;;;;;4.32;3.03;;;17.80;60.60;;;;;;5055684;28;20218;-60
2021/05/27 10:46:31;;;;;;;6.30;2.72;;;17.80;60.90;;;;;;5055903;28;20178;-61
2021/05/27 10:48:56;;;;;;;7.38;3.10;;;17.90;60.80;;;;;;5055498;28;20241;-62
2021/05/27 10:51:29;;;;;;;5.60;3.53;;;17.90;61.00;;;;;;5056212;28;20171;-61
2021/05/27 10:53:56;;;;;;;7.80;3.25;;;17.80;61.00;;;;;;5055571;28;20266;-61
2021/05/27 10:56:34;;;;;;;6.47;3.20;;;17.80;61.00;;;;;;5055210;28;20250;-61
2021/05/27 10:59:00;;;;;;;5.78;3.17;;;17.80;60.90;;;;;;5055691;28;20241;-61
2021/05/27 11:01:28;;;;;;;6.70;3.05;;;17.90;61.10;;;;;;5054502;28;20199;-61
2021/05/27 11:03:57;;;;;;;5.38;3.28;;;17.90;60.90;;;;;;5054375;28;20171;-61
2021/05/27 11:06:33;;;;;;;6.88;3.15;;;17.90;60.80;;;;;;5055539;28;20175;-61
2021/05/27 11:09:08;;;;;;;5.55;3.30;;;18.00;60.80;;;;;;5055470;28;20174;-61
2021/05/27 11:11:34;;;;;;;9.18;3.83;;;18.00;60.80;;;;;;5054381;28;20269;-61
2021/05/27 11:14:31;;;;;;;9.20;3.60;;;17.90;60.80;;;;;;5055628;28;20536;-61
2021/05/27 11:17:11;;;;;;;5.70;3.55;;;17.90;60.80;;;;;;5054519;28;20548;-61
2021/05/27 11:22:35;;;;;;;7.07;3.83;;;17.90;60.90;;;;;;5055641;28;20175;-61
2021/05/27 11:25:07;;;;;;;7.53;3.28;;;17.90;60.90;;;;;;5054204;28;20201;-61
2021/05/27 11:27:37;;;;;;;10.18;4.43;;;17.80;60.90;;;;;;5055122;28;20171;-61
2021/05/27 11:30:28;;;;;;;5.03;3.30;;;17.80;60.90;;;;;;5055180;28;20183;-61
2021/05/27 11:32:55;;;;;;;7.75;3.70;;;17.80;60.90;;;;;;5055301;28;20183;-61
2021/05/27 11:35:22;;;;;;;6.78;3.58;;;17.90;60.90;;;;;;5055301;28;20218;-61
2021/05/27 11:37:49;;;;;;;5.75;3.15;;;17.90;60.70;;;;;;5053959;28;20191;-62
2021/05/27 11:40:16;;;;;;;6.88;3.63;;;18.00;60.50;;;;;;5054839;28;20708;-61
2021/05/27 11:42:47;;;;;;;4.43;3.28;;;18.00;60.30;;;;;;5054554;28;20648;-61
2021/05/27 11:45:12;;;;;;;4.85;3.42;;;18.00;60.30;;;;;;5054262;28;20186;-61
2021/05/27 11:47:38;;;;;;;6.28;3.60;;;18.00;60.20;;;;;;5054786;28;20175;-61
2021/05/27 11:50:07;;;;;;;5.45;3.22;;;18.10;60.10;;;;;;5055191;28;20241;-61
2021/05/27 11:52:33;;;;;;;5.00;3.00;;;18.10;60.10;;;;;;5053692;28;20209;-61
2021/05/27 11:54:58;;;;;;;4.32;3.15;;;18.10;60.00;;;;;;5054866;28;20187;-61
2021/05/27 11:57:43;;;;;;;6.20;3.47;;;18.10;60.10;;;;;;5054764;28;20660;-61
2021/05/27 12:00:09;;;;;;;6.43;3.22;;;18.20;59.90;;;;;;5054104;28;20305;-61
2021/05/27 12:02:48;;;;;;;6.93;3.72;;;18.10;60.00;;;;;;5054722;28;20179;-61
2021/05/27 12:05:27;;;;;;;7.03;3.50;;;18.10;60.10;;;;;;5054769;28;20175;-61
2021/05/27 12:07:57;;;;;;;5.03;3.13;;;18.10;60.20;;;;;;5053891;28;20186;-61
2021/05/27 12:10:23;;;;;;;4.72;3.33;;;18.10;60.10;;;;;;5054834;28;20180;-61
2021/05/27 12:12:49;;;;;;;5.20;3.28;;;18.10;60.10;;;;;;5053588;28;20689;-61
2021/05/27 12:15:15;;;;;;;6.00;3.75;;;18.10;60.10;;;;;;5054587;28;20201;-61
2021/05/27 12:17:44;;;;;;;6.30;3.75;;;18.10;60.10;;;;;;5054144;28;20179;-61
2021/05/27 12:20:33;;;;;;;4.97;2.80;;;18.10;60.20;;;;;;5053555;28;20215;-61
2021/05/27 12:23:06;;;;;;;3.58;2.85;;;18.00;60.20;;;;;;5046432;28;20183;-61
2021/05/27 12:25:33;;;;;;;4.15;2.80;;;18.00;60.20;;;;;;5054446;28;20171;-61
2021/05/27 12:28:03;;;;;;;3.88;2.80;;;18.00;60.30;;;;;;5053800;28;20185;-61
2021/05/27 12:30:31;;;;;;;4.57;3.00;;;18.10;60.40;;;;;;5054461;28;20171;-61
2021/05/27 12:32:56;;;;;;;3.97;2.95;;;18.00;60.30;;;;;;5053923;28;20179;-61
2021/05/27 12:35:39;;;;;;;4.50;3.22;;;18.00;60.30;;;;;;5019305;28;20683;-61
2021/05/27 12:38:06;;;;;;;3.60;2.90;;;18.00;60.20;;;;;;5052924;28;20193;-61
2021/05/27 12:40:36;;;;;;;4.93;2.80;;;18.00;60.20;;;;;;5053758;28;20213;-61
2021/05/27 12:43:03;;;;;;;3.03;2.67;;;18.00;60.20;;;;;;5053224;28;20226;-61
2021/05/27 12:45:37;;;;;;;5.60;3.22;;;18.10;60.10;;;;;;5053669;28;20562;-60
2021/05/27 12:48:09;;;;;;;5.72;3.00;;;18.10;60.10;;;;;;5052823;28;20629;-61
2021/05/27 12:50:36;;;;;;;5.43;2.88;;;18.00;60.00;;;;;;5053640;28;20224;-61
2021/05/27 12:53:03;;;;;;;4.75;3.00;;;18.00;60.10;;;;;;5053441;28;20171;-62
2021/05/27 12:55:31;;;;;;;5.35;3.20;;;18.00;60.10;;;;;;5053020;28;20626;-61
2021/05/27 12:57:59;;;;;;;4.20;2.80;;;18.00;60.20;;;;;;5053628;28;20549;-61
2021/05/27 13:00:25;;;;;;;4.95;3.05;;;17.90;60.30;;;;;;5053697;28;20206;-61
2021/05/27 13:03:05;;;;;;;4.90;2.85;;;17.90;60.30;;;;;;5052513;28;20698;-61
2021/05/27 13:05:30;;;;;;;4.80;2.92;;;17.90;60.50;;;;;;5053312;28;20232;-61